BNE weather

Brisbane International Airport
Brisbane, Queensland, Australia

Public forecast

Using degrees Celsius for public forecast. Weather courtesy of forecast.io.

METAR (pilot weather report)

Retrieved 2019/03/20 23:00 UTC (3 minutes ago):

YBBN 202300Z 02008KT 9999 FEW020 BKN050 26/22 Q1014 NOSIG

TAF (pilot weather forecast)

Forecast is more than 12 hours old.

Retrieved 2019/03/19 00:00 UTC (2 days ago):

TAF COR YBBN 192330Z 2000/2106 22005KT CAVOK FM200100 04012KT 9999 FEW035 FM200400 06012KT 9999 -SHRA SCT030 SCT040 FM200900 06012KT 9999 SCT012 BKN020 FM201200 14010KT 9999 SCT010 BKN020 FM201800 20005KT 9999 SCT010 BKN020 FM210000 14010KT 9999 -SHRA FEW020 SCT030 FM210400 11013KT 9999 -SHRA FEW020 SCT040 TEMPO 2009/2022 9999 NSW BKN010 PROB30 TEMPO 2102/2106 VRB20G35KT 2000 TSRA BKN015 FEW050CB